Time;durP1;ratioP1;P1;durP2;ratioP2;P2;SDS_P1;SDS_P2;PMS_P1;PMS_P2;Temp;Humidity;BMP_temperature;BMP_pressure;BME280_temperature;BME280_humidity;BME280_pressure;Samples;Min_cycle;Max_cycle;Signal;HPM_P1;HPM_P2
2023/05/25 00:01:58;;;;;;;0.00;0.00;;;15.60;99.90;;;;;;5111492;28;20043;-95
2023/05/25 00:04:25;;;;;;;0.77;0.20;;;15.50;99.90;;;;;;5127776;28;20054;-95
2023/05/25 00:06:52;;;;;;;0.00;0.00;;;15.30;99.90;;;;;;5111040;28;20527;-95
2023/05/25 00:09:18;;;;;;;0.00;0.00;;;15.20;99.90;;;;;;5127535;28;20483;-95
2023/05/25 00:11:43;;;;;;;0.00;0.00;;;15.30;99.90;;;;;;5111774;28;20032;-95
2023/05/25 00:14:09;;;;;;;0.10;0.10;;;15.30;99.90;;;;;;5111769;28;20047;-94
2023/05/25 00:16:39;;;;;;;0.10;0.10;;;15.30;99.90;;;;;;5127146;28;20055;-95
2023/05/25 00:19:11;;;;;;;0.10;0.10;;;15.30;99.90;;;;;;5128181;28;20024;-95
2023/05/25 00:21:37;;;;;;;0.03;0.03;;;15.30;99.90;;;;;;5126912;28;20024;-95
2023/05/25 00:24:06;;;;;;;0.22;0.15;;;15.30;99.90;;;;;;5111078;28;20024;-96
2023/05/25 00:26:33;;;;;;;0.10;0.10;;;15.20;99.90;;;;;;5127952;28;20024;-96
2023/05/25 00:29:02;;;;;;;0.10;0.10;;;15.20;99.90;;;;;;5111019;28;20028;-95
2023/05/25 00:31:28;;;;;;;0.00;0.00;;;15.00;99.90;;;;;;5110468;28;20044;-95
2023/05/25 00:33:54;;;;;;;0.10;0.10;;;15.00;99.90;;;;;;5110919;28;20035;-95
2023/05/25 00:36:19;;;;;;;0.00;0.00;;;15.00;99.90;;;;;;5109495;28;20030;-95
2023/05/25 00:38:45;;;;;;;0.00;0.00;;;14.90;99.90;;;;;;5110071;28;20257;-94
2023/05/25 00:41:11;;;;;;;0.00;0.00;;;14.90;99.90;;;;;;5109707;28;20554;-95
2023/05/25 00:43:37;;;;;;;0.00;0.00;;;14.80;99.90;;;;;;5100011;28;20063;-94
2023/05/25 00:46:03;;;;;;;0.10;0.10;;;14.80;99.90;;;;;;5097322;28;20028;-95
2023/05/25 00:48:29;;;;;;;0.10;0.10;;;14.80;99.90;;;;;;5097155;28;20051;-95
2023/05/25 00:50:58;;;;;;;0.00;0.00;;;14.70;99.90;;;;;;5096659;28;20032;-95
2023/05/25 00:53:24;;;;;;;0.00;0.00;;;14.70;99.90;;;;;;5097424;28;20043;-95
2023/05/25 00:56:13;;;;;;;0.10;0.10;;;14.80;99.90;;;;;;5112929;28;20107;-95
2023/05/25 00:58:42;;;;;;;0.00;0.00;;;14.70;99.90;;;;;;5096779;28;20391;-94
2023/05/25 01:01:12;;;;;;;0.00;0.00;;;14.70;99.90;;;;;;5096757;28;20028;-95
2023/05/25 01:03:44;;;;;;;0.52;0.20;;;14.70;99.90;;;;;;5096780;28;20027;-94
2023/05/25 01:06:13;;;;;;;0.00;0.00;;;14.70;99.90;;;;;;5113192;28;20426;-94
2023/05/25 01:08:43;;;;;;;0.00;0.00;;;14.70;99.90;;;;;;5112585;28;20116;-95
2023/05/25 01:11:12;;;;;;;0.00;0.00;;;14.60;99.90;;;;;;5096874;28;20040;-89
2023/05/25 01:13:40;;;;;;;0.00;0.00;;;14.60;99.90;;;;;;5094608;28;20024;-89
2023/05/25 01:16:07;;;;;;;0.10;0.10;;;14.60;99.90;;;;;;5094629;28;20539;-89
2023/05/25 01:18:33;;;;;;;0.10;0.10;;;14.50;99.90;;;;;;5092656;28;20445;-89
2023/05/25 01:21:12;;;;;;;0.13;0.13;;;14.50;99.90;;;;;;5093441;28;20024;-89
2023/05/25 01:23:42;;;;;;;0.13;0.13;;;14.50;99.90;;;;;;5093237;28;20107;-89
2023/05/25 01:26:14;;;;;;;0.00;0.00;;;14.40;99.90;;;;;;5094538;28;20020;-89
2023/05/25 01:28:45;;;;;;;0.00;0.00;;;14.50;99.90;;;;;;5109842;28;20392;-89
2023/05/25 01:31:14;;;;;;;0.00;0.00;;;14.40;99.90;;;;;;5109568;28;20102;-89
2023/05/25 01:33:41;;;;;;;0.10;0.10;;;14.30;99.90;;;;;;5093808;28;20078;-89
2023/05/25 01:36:07;;;;;;;0.00;0.00;;;14.30;99.90;;;;;;5109788;28;20039;-90
2023/05/25 01:38:33;;;;;;;0.10;0.10;;;14.20;99.90;;;;;;5094070;28;20024;-89
2023/05/25 01:40:59;;;;;;;0.00;0.00;;;14.20;99.90;;;;;;5094254;28;20024;-89
2023/05/25 01:43:25;;;;;;;0.10;0.10;;;14.30;99.90;;;;;;5109620;28;20039;-89
2023/05/25 01:45:56;;;;;;;0.10;0.10;;;14.20;99.90;;;;;;5093800;28;20023;-89
2023/05/25 01:48:50;;;;;;;0.20;0.20;;;14.20;99.90;;;;;;5093924;28;20024;-89
2023/05/25 01:51:39;;;;;;;0.00;0.00;;;14.20;99.90;;;;;;5093750;28;20392;-90
2023/05/25 01:54:18;;;;;;;0.00;0.00;;;14.10;99.90;;;;;;5093096;28;20028;-89
2023/05/25 01:56:46;;;;;;;0.30;0.30;;;14.10;99.90;;;;;;5093629;28;20422;-89
2023/05/25 01:59:15;;;;;;;0.00;0.00;;;14.10;99.90;;;;;;5092236;28;20023;-89
2023/05/25 02:01:42;;;;;;;0.00;0.00;;;14.00;99.90;;;;;;5092269;28;20204;-89
2023/05/25 02:04:08;;;;;;;0.00;0.00;;;14.00;99.90;;;;;;5093427;28;20147;-88
2023/05/25 02:06:37;;;;;;;0.00;0.00;;;13.90;99.90;;;;;;5093963;28;20150;-89
2023/05/25 02:09:03;;;;;;;0.20;0.20;;;13.90;99.90;;;;;;5093443;28;20036;-89
2023/05/25 02:11:28;;;;;;;0.05;0.05;;;13.90;99.90;;;;;;5093361;28;20124;-89
2023/05/25 02:13:54;;;;;;;0.10;0.10;;;13.90;99.90;;;;;;5091963;28;20618;-89
2023/05/25 02:16:20;;;;;;;0.20;0.20;;;13.80;99.90;;;;;;5092810;28;20438;-89
2023/05/25 02:18:45;;;;;;;0.10;0.10;;;13.70;99.90;;;;;;5093303;28;20510;-89
2023/05/25 02:21:11;;;;;;;0.20;0.15;;;13.70;99.90;;;;;;5093337;28;20487;-89
2023/05/25 02:23:37;;;;;;;0.00;0.00;;;13.60;99.90;;;;;;5093214;28;20028;-89
2023/05/25 02:26:02;;;;;;;0.10;0.10;;;13.50;99.90;;;;;;5094231;28;20024;-89
2023/05/25 02:28:28;;;;;;;0.22;0.22;;;13.60;99.90;;;;;;5092856;28;20103;-88
2023/05/25 02:30:54;;;;;;;0.00;0.00;;;13.70;99.90;;;;;;5092648;28;20136;-89
2023/05/25 02:33:19;;;;;;;0.00;0.00;;;13.60;99.90;;;;;;5091532;28;20122;-89
2023/05/25 02:35:45;;;;;;;0.00;0.00;;;13.50;99.90;;;;;;5093324;28;20028;-89
2023/05/25 02:38:11;;;;;;;0.05;0.05;;;13.40;99.90;;;;;;5091581;28;20028;-89
2023/05/25 02:40:37;;;;;;;0.00;0.00;;;13.50;99.90;;;;;;5092729;28;20028;-89
2023/05/25 02:43:02;;;;;;;0.10;0.10;;;13.50;99.90;;;;;;5072045;28;20029;-89
2023/05/25 02:45:28;;;;;;;0.10;0.10;;;13.40;99.90;;;;;;5072051;28;20118;-88
2023/05/25 02:47:53;;;;;;;0.00;0.00;;;13.30;99.90;;;;;;5071223;28;20024;-89
2023/05/25 02:50:19;;;;;;;0.10;0.10;;;13.40;99.90;;;;;;5072837;28;20035;-88
2023/05/25 02:52:45;;;;;;;0.20;0.20;;;13.40;99.90;;;;;;5072394;28;20032;-90
2023/05/25 02:55:12;;;;;;;0.30;0.30;;;13.30;99.90;;;;;;5072740;28;20024;-88
2023/05/25 02:57:38;;;;;;;0.00;0.00;;;13.40;99.90;;;;;;5072194;28;20026;-89
2023/05/25 03:00:06;;;;;;;0.10;0.10;;;13.40;99.90;;;;;;5071587;28;20143;-88
2023/05/25 03:02:32;;;;;;;0.00;0.00;;;13.40;99.90;;;;;;5072514;28;20025;-88
2023/05/25 03:04:58;;;;;;;0.10;0.10;;;13.40;99.90;;;;;;5072413;28;20463;-88
2023/05/25 03:07:25;;;;;;;0.00;0.00;;;13.30;99.90;;;;;;5072067;28;20032;-89
2023/05/25 03:09:51;;;;;;;0.10;0.10;;;13.30;99.90;;;;;;5072147;28;20052;-89
2023/05/25 03:12:17;;;;;;;0.17;0.17;;;13.40;99.90;;;;;;5087825;28;20056;-89
2023/05/25 03:14:43;;;;;;;0.10;0.10;;;13.30;99.90;;;;;;5087796;28;20050;-89
2023/05/25 03:17:08;;;;;;;1.67;0.85;;;13.20;99.90;;;;;;5072014;28;20069;-89
2023/05/25 03:19:34;;;;;;;0.30;0.30;;;13.00;99.90;;;;;;5072174;28;20035;-89
2023/05/25 03:22:00;;;;;;;0.00;0.00;;;13.10;99.90;;;;;;5087922;28;20039;-89
2023/05/25 03:24:27;;;;;;;0.10;0.10;;;13.10;99.90;;;;;;5072358;28;20028;-89
2023/05/25 03:26:53;;;;;;;0.10;0.10;;;13.10;99.90;;;;;;5087867;28;20048;-89
2023/05/25 03:29:18;;;;;;;0.00;0.00;;;13.10;99.90;;;;;;5086921;28;20068;-89
2023/05/25 03:31:44;;;;;;;0.10;0.10;;;13.10;99.90;;;;;;5076165;28;20040;-90
2023/05/25 03:34:10;;;;;;;2.55;0.40;;;13.00;99.90;;;;;;5092269;28;20028;-90
2023/05/25 03:36:37;;;;;;;0.10;0.10;;;12.90;99.90;;;;;;5092078;28;20028;-89
2023/05/25 03:39:08;;;;;;;0.00;0.00;;;12.90;99.90;;;;;;5092078;28;20032;-89
2023/05/25 03:41:34;;;;;;;0.10;0.10;;;13.00;99.90;;;;;;5090647;28;20380;-89
2023/05/25 03:44:00;;;;;;;0.30;0.30;;;12.90;99.90;;;;;;5090453;28;20027;-89
2023/05/25 03:46:25;;;;;;;0.25;0.25;;;12.90;99.90;;;;;;5108036;28;20476;-89
2023/05/25 03:48:51;;;;;;;0.10;0.10;;;12.80;99.90;;;;;;5107567;28;20028;-89
2023/05/25 03:51:16;;;;;;;0.10;0.10;;;12.80;99.90;;;;;;5091810;28;20028;-88
2023/05/25 03:53:42;;;;;;;0.10;0.10;;;12.80;99.90;;;;;;5107687;28;20020;-88
2023/05/25 03:56:08;;;;;;;0.05;0.05;;;12.80;99.90;;;;;;5092285;28;20476;-89
2023/05/25 03:58:33;;;;;;;0.55;0.55;;;12.80;99.90;;;;;;5091859;28;20037;-89
2023/05/25 04:00:59;;;;;;;0.08;0.08;;;12.80;99.90;;;;;;5107427;28;20025;-89
2023/05/25 04:03:26;;;;;;;0.10;0.10;;;12.80;99.90;;;;;;5091696;28;20068;-89
2023/05/25 04:05:51;;;;;;;0.10;0.10;;;12.70;99.90;;;;;;5107947;28;20106;-89
2023/05/25 04:08:18;;;;;;;0.10;0.10;;;12.70;99.90;;;;;;5092086;28;20111;-89
2023/05/25 04:10:47;;;;;;;0.10;0.10;;;12.70;99.90;;;;;;5091965;28;20020;-89
2023/05/25 04:13:13;;;;;;;0.10;0.10;;;12.60;99.90;;;;;;5106873;28;20036;-89
2023/05/25 04:15:38;;;;;;;0.03;0.03;;;12.70;99.90;;;;;;5092084;28;20031;-89
2023/05/25 04:18:04;;;;;;;0.00;0.00;;;12.70;99.90;;;;;;5108859;28;20127;-89
2023/05/25 04:20:30;;;;;;;0.22;0.22;;;12.60;99.90;;;;;;5095572;28;20016;-88
2023/05/25 04:22:56;;;;;;;0.10;0.10;;;12.60;99.90;;;;;;5095520;28;20038;-89
2023/05/25 04:25:22;;;;;;;0.10;0.10;;;12.60;99.90;;;;;;5095526;28;20488;-89
2023/05/25 04:27:48;;;;;;;0.00;0.00;;;12.60;99.90;;;;;;5110935;28;20149;-89
2023/05/25 04:30:14;;;;;;;0.10;0.10;;;12.60;99.90;;;;;;5111166;28;20040;-89
2023/05/25 04:32:40;;;;;;;0.47;0.47;;;12.60;99.90;;;;;;5111060;28;20051;-89
2023/05/25 04:35:06;;;;;;;0.32;0.20;;;12.60;99.90;;;;;;5095498;28;20369;-89
2023/05/25 04:37:32;;;;;;;0.32;0.10;;;12.70;99.90;;;;;;5095427;28;20100;-89
2023/05/25 04:39:58;;;;;;;0.00;0.00;;;12.50;99.90;;;;;;5095218;28;20432;-89
2023/05/25 04:42:25;;;;;;;0.10;0.10;;;12.60;99.90;;;;;;5110663;28;20109;-89
2023/05/25 04:44:54;;;;;;;0.10;0.10;;;12.20;99.90;;;;;;5095178;28;20028;-89
2023/05/25 04:47:20;;;;;;;0.43;0.43;;;12.40;99.90;;;;;;5110996;28;20028;-89
2023/05/25 04:49:46;;;;;;;0.20;0.20;;;12.40;99.90;;;;;;5095095;28;20535;-89
2023/05/25 04:52:11;;;;;;;0.40;0.40;;;12.50;99.90;;;;;;5094650;28;20138;-89
2023/05/25 04:54:37;;;;;;;0.10;0.10;;;12.30;99.90;;;;;;5093639;28;20411;-89
2023/05/25 04:57:03;;;;;;;0.00;0.00;;;12.30;99.90;;;;;;5094642;28;20024;-89
2023/05/25 04:59:28;;;;;;;0.10;0.10;;;12.50;99.90;;;;;;5110742;28;20375;-89
2023/05/25 05:01:54;;;;;;;0.00;0.00;;;12.50;99.90;;;;;;5110630;28;20024;-89
2023/05/25 05:04:20;;;;;;;0.00;0.00;;;12.40;99.90;;;;;;5094926;28;20020;-89
2023/05/25 05:06:46;;;;;;;0.00;0.00;;;12.50;99.90;;;;;;5110712;28;20028;-89
2023/05/25 05:09:12;;;;;;;0.20;0.20;;;12.40;99.90;;;;;;5094774;28;20020;-89
2023/05/25 05:11:37;;;;;;;0.17;0.17;;;12.60;99.90;;;;;;5094041;28;20031;-89
2023/05/25 05:14:03;;;;;;;0.30;0.30;;;12.40;99.90;;;;;;5110587;28;20388;-89
2023/05/25 05:16:33;;;;;;;0.10;0.03;;;12.10;99.90;;;;;;5093026;28;20038;-89
2023/05/25 05:18:59;;;;;;;0.10;0.10;;;12.10;99.90;;;;;;5094658;28;20032;-89
2023/05/25 05:21:25;;;;;;;0.20;0.20;;;12.00;99.90;;;;;;5093423;28;20551;-89
2023/05/25 05:23:50;;;;;;;0.00;0.00;;;12.00;99.90;;;;;;5094384;28;20051;-89
2023/05/25 05:26:16;;;;;;;0.00;0.00;;;12.20;99.90;;;;;;5093854;28;20055;-89
2023/05/25 05:28:42;;;;;;;0.20;0.20;;;12.10;99.90;;;;;;5109541;28;20085;-89
2023/05/25 05:31:07;;;;;;;0.20;0.20;;;12.30;99.90;;;;;;5094385;28;20052;-89
2023/05/25 05:33:33;;;;;;;0.20;0.20;;;12.30;99.90;;;;;;5093989;28;20024;-89
2023/05/25 05:36:00;;;;;;;0.05;0.05;;;12.30;99.90;;;;;;5093497;28;20032;-89
2023/05/25 05:38:26;;;;;;;0.00;0.00;;;12.30;99.90;;;;;;5094315;28;20032;-89
2023/05/25 05:40:51;;;;;;;0.15;0.15;;;12.30;99.90;;;;;;5093432;28;20020;-89
2023/05/25 05:43:17;;;;;;;0.20;0.20;;;12.30;99.90;;;;;;5093914;28;20063;-89
2023/05/25 05:45:42;;;;;;;0.00;0.00;;;12.30;99.90;;;;;;5109669;28;20021;-90
2023/05/25 05:48:08;;;;;;;0.20;0.20;;;12.50;99.90;;;;;;5094234;28;20032;-89
2023/05/25 05:50:35;;;;;;;0.20;0.20;;;12.60;99.90;;;;;;5093899;28;20020;-89
2023/05/25 05:53:01;;;;;;;0.20;0.20;;;12.40;99.90;;;;;;5094037;28;20032;-89
2023/05/25 05:55:27;;;;;;;0.10;0.10;;;12.60;99.90;;;;;;5093197;28;20533;-89
2023/05/25 05:57:52;;;;;;;0.10;0.10;;;12.60;99.90;;;;;;5093940;28;20043;-89
2023/05/25 06:00:18;;;;;;;0.22;0.22;;;12.40;99.90;;;;;;5093669;28;20024;-89
2023/05/25 06:02:44;;;;;;;0.15;0.15;;;12.20;99.90;;;;;;5091865;28;20032;-89
2023/05/25 06:05:10;;;;;;;0.30;0.30;;;12.60;99.90;;;;;;5093868;28;20024;-89
2023/05/25 06:07:37;;;;;;;0.20;0.13;;;12.60;99.90;;;;;;5109285;28;20036;-89
2023/05/25 06:10:03;;;;;;;0.10;0.10;;;12.60;99.90;;;;;;5091645;28;20020;-89
2023/05/25 06:12:29;;;;;;;0.30;0.30;;;12.40;99.90;;;;;;5092404;28;20047;-89
2023/05/25 06:14:55;;;;;;;0.28;0.28;;;12.40;99.90;;;;;;5093305;28;20028;-89
2023/05/25 06:17:21;;;;;;;0.40;0.40;;;12.80;99.90;;;;;;5094016;28;20031;-89
2023/05/25 06:19:48;;;;;;;0.45;0.40;;;12.90;99.90;;;;;;5109150;28;20027;-89
2023/05/25 06:22:14;;;;;;;0.20;0.20;;;12.80;99.90;;;;;;5093124;28;20035;-89
2023/05/25 06:24:40;;;;;;;0.10;0.10;;;13.00;99.90;;;;;;5093290;28;20051;-89
2023/05/25 06:27:06;;;;;;;0.20;0.20;;;13.20;99.90;;;;;;5093126;28;20101;-89
2023/05/25 06:29:31;;;;;;;0.00;0.00;;;13.20;99.90;;;;;;5093576;28;20032;-89
2023/05/25 06:31:57;;;;;;;1.50;1.08;;;13.40;99.90;;;;;;5092663;28;20168;-89
2023/05/25 06:34:23;;;;;;;0.15;0.13;;;13.10;99.90;;;;;;5093076;28;20024;-89
2023/05/25 06:36:48;;;;;;;0.25;0.25;;;13.40;99.90;;;;;;5092781;28;20551;-89
2023/05/25 06:39:14;;;;;;;0.60;0.45;;;13.70;99.90;;;;;;5091251;28;20480;-89
2023/05/25 06:41:40;;;;;;;0.55;0.55;;;14.00;99.90;;;;;;5090906;28;20502;-89
2023/05/25 06:44:06;;;;;;;0.40;0.40;;;13.80;99.90;;;;;;5108539;28;20024;-89
2023/05/25 06:46:32;;;;;;;0.10;0.10;;;14.00;99.90;;;;;;5092957;28;20700;-90
2023/05/25 06:48:59;;;;;;;0.20;0.20;;;14.10;99.90;;;;;;5108989;28;20038;-89
2023/05/25 06:51:26;;;;;;;1.00;0.47;;;13.90;99.90;;;;;;5108192;28;20031;-88
2023/05/25 06:53:52;;;;;;;0.20;0.20;;;14.10;99.90;;;;;;5092392;28;20038;-89
2023/05/25 06:56:18;;;;;;;0.17;0.17;;;13.60;99.90;;;;;;5092754;28;20016;-89
2023/05/25 06:58:44;;;;;;;0.10;0.10;;;13.40;99.90;;;;;;5091804;28;20023;-89
2023/05/25 07:01:10;;;;;;;0.85;0.40;;;13.70;99.90;;;;;;5092637;28;20116;-89
2023/05/25 07:03:37;;;;;;;0.10;0.10;;;13.60;99.90;;;;;;5091612;28;20056;-90
2023/05/25 07:06:03;;;;;;;0.25;0.25;;;13.90;99.90;;;;;;5092346;28;20031;-89
2023/05/25 07:08:29;;;;;;;0.47;0.30;;;14.00;99.90;;;;;;5092616;28;20425;-89
2023/05/25 07:10:54;;;;;;;0.30;0.30;;;13.90;99.90;;;;;;5092500;28;20024;-89
2023/05/25 07:13:20;;;;;;;1.08;0.30;;;13.90;99.90;;;;;;5092505;28;20031;-89
2023/05/25 07:15:46;;;;;;;0.57;0.57;;;14.30;99.90;;;;;;5092522;28;20383;-89
2023/05/25 07:18:11;;;;;;;0.30;0.30;;;14.60;99.90;;;;;;5092204;28;20373;-90
2023/05/25 07:20:40;;;;;;;0.30;0.30;;;14.60;99.90;;;;;;5108386;28;20032;-89
2023/05/25 07:23:07;;;;;;;0.40;0.40;;;14.70;99.90;;;;;;5091361;28;20385;-96
2023/05/25 07:25:33;;;;;;;0.63;0.45;;;14.90;99.90;;;;;;5093671;28;20024;-92
2023/05/25 07:27:58;;;;;;;0.20;0.20;;;14.60;99.90;;;;;;5092542;28;20030;-86
2023/05/25 07:30:24;;;;;;;0.40;0.20;;;14.80;99.90;;;;;;5092388;28;20069;-93
2023/05/25 07:32:50;;;;;;;0.00;0.00;;;14.90;99.90;;;;;;5090752;28;20055;-91
2023/05/25 07:35:15;;;;;;;0.10;0.10;;;15.00;99.90;;;;;;5095189;28;20028;-92
2023/05/25 07:37:41;;;;;;;0.20;0.20;;;14.90;99.90;;;;;;5091730;28;20032;-93
2023/05/25 07:40:07;;;;;;;0.20;0.20;;;14.60;99.90;;;;;;5095333;28;20027;-92
2023/05/25 07:42:34;;;;;;;1.10;0.57;;;14.70;99.90;;;;;;5093079;28;20108;-94
2023/05/25 07:45:00;;;;;;;0.20;0.20;;;14.60;99.90;;;;;;5093458;28;20020;-95
2023/05/25 07:47:26;;;;;;;0.10;0.10;;;14.70;99.90;;;;;;5093438;28;20032;-95
2023/05/25 07:49:52;;;;;;;0.73;0.55;;;14.90;99.90;;;;;;5095418;28;20054;-91
2023/05/25 07:52:18;;;;;;;0.22;0.22;;;14.80;99.90;;;;;;5092992;28;20078;-92
2023/05/25 07:54:44;;;;;;;0.38;0.30;;;14.90;99.90;;;;;;5096217;28;20093;-91
2023/05/25 07:57:10;;;;;;;0.10;0.10;;;14.80;99.90;;;;;;5096932;28;20034;-92
2023/05/25 07:59:35;;;;;;;0.45;0.30;;;15.00;99.90;;;;;;5097003;28;20028;-92
2023/05/25 08:02:01;;;;;;;0.43;0.43;;;15.00;99.90;;;;;;5097111;28;20103;-92
2023/05/25 08:04:27;;;;;;;0.15;0.15;;;14.90;99.90;;;;;;5095324;28;20020;-92
2023/05/25 08:06:53;;;;;;;0.55;0.45;;;15.20;99.90;;;;;;5095755;28;20058;-92
2023/05/25 08:09:18;;;;;;;0.43;0.43;;;15.20;99.90;;;;;;5096374;28;20021;-92
2023/05/25 08:11:46;;;;;;;0.10;0.10;;;15.10;99.90;;;;;;5096987;28;20180;-92
2023/05/25 08:14:11;;;;;;;0.57;0.57;;;15.10;99.90;;;;;;5097509;28;20016;-92
2023/05/25 08:16:37;;;;;;;0.68;0.68;;;15.00;99.90;;;;;;5096593;28;20027;-92
2023/05/25 08:19:03;;;;;;;0.63;0.38;;;15.00;99.90;;;;;;5096345;28;20092;-92
2023/05/25 08:21:28;;;;;;;0.20;0.20;;;15.20;99.90;;;;;;5096981;28;20115;-92
2023/05/25 08:23:55;;;;;;;0.20;0.20;;;15.50;99.90;;;;;;5096701;28;20044;-92
2023/05/25 08:26:21;;;;;;;0.00;0.00;;;15.60;99.90;;;;;;5096464;28;20028;-91
2023/05/25 08:28:47;;;;;;;0.32;0.32;;;15.40;99.90;;;;;;5096652;28;20032;-92
2023/05/25 08:31:12;;;;;;;0.20;0.20;;;15.20;99.90;;;;;;5096166;28;20104;-92
2023/05/25 08:33:38;;;;;;;1.85;0.50;;;15.30;99.90;;;;;;5095873;28;20480;-92
2023/05/25 08:36:05;;;;;;;0.22;0.22;;;15.30;99.90;;;;;;5096332;28;20020;-92
2023/05/25 08:38:31;;;;;;;0.10;0.10;;;15.70;99.90;;;;;;5096129;28;20032;-93
2023/05/25 08:41:04;;;;;;;0.00;0.00;;;15.90;99.90;;;;;;5095019;28;20142;-92
2023/05/25 08:43:31;;;;;;;0.20;0.20;;;16.10;99.90;;;;;;5096872;28;20105;-92
2023/05/25 08:46:03;;;;;;;0.25;0.25;;;16.10;99.90;;;;;;5095949;28;20028;-91
2023/05/25 08:48:30;;;;;;;0.25;0.25;;;15.80;99.90;;;;;;5111734;28;20024;-92
2023/05/25 08:51:00;;;;;;;0.20;0.20;;;15.40;99.90;;;;;;5095978;28;20028;-92
2023/05/25 08:53:27;;;;;;;0.20;0.20;;;15.50;99.90;;;;;;5096048;28;20082;-92
2023/05/25 08:55:55;;;;;;;0.13;0.13;;;15.50;99.90;;;;;;5112149;28;20480;-92
2023/05/25 08:58:31;;;;;;;0.20;0.20;;;15.60;99.90;;;;;;5111886;28;20499;-92
2023/05/25 09:01:02;;;;;;;0.38;0.38;;;15.40;99.90;;;;;;5095792;28;20019;-92
2023/05/25 09:03:29;;;;;;;0.10;0.10;;;15.60;99.90;;;;;;5110644;28;20487;-92
2023/05/25 09:05:56;;;;;;;0.00;0.00;;;15.60;99.90;;;;;;5095888;28;20027;-91
2023/05/25 09:08:23;;;;;;;0.20;0.20;;;15.60;99.90;;;;;;5095948;28;20032;-92
2023/05/25 09:10:50;;;;;;;0.30;0.30;;;15.60;99.90;;;;;;5095517;28;20081;-92
2023/05/25 09:13:16;;;;;;;0.10;0.10;;;15.70;99.90;;;;;;5096252;28;20024;-91
2023/05/25 09:15:43;;;;;;;0.75;0.47;;;15.80;99.90;;;;;;5095618;28;20099;-92
2023/05/25 09:18:08;;;;;;;0.10;0.10;;;15.70;99.90;;;;;;5111108;28;20024;-92
2023/05/25 09:20:34;;;;;;;0.17;0.17;;;15.70;99.90;;;;;;5111122;28;20047;-92
2023/05/25 09:23:01;;;;;;;0.63;0.63;;;15.90;99.90;;;;;;5095576;28;20158;-92
2023/05/25 09:25:28;;;;;;;0.70;0.70;;;15.90;99.90;;;;;;5095682;28;20484;-92
2023/05/25 09:27:56;;;;;;;0.10;0.10;;;16.20;99.90;;;;;;5111021;28;20020;-92
2023/05/25 09:30:22;;;;;;;0.20;0.20;;;16.40;99.90;;;;;;5094955;28;20480;-90
2023/05/25 09:32:49;;;;;;;0.25;0.22;;;16.40;99.90;;;;;;5094867;28;20036;-92
2023/05/25 09:35:14;;;;;;;0.10;0.10;;;16.60;99.90;;;;;;5093516;28;20024;-92
2023/05/25 09:37:41;;;;;;;0.20;0.20;;;16.60;99.90;;;;;;5095260;28;20439;-91
2023/05/25 09:40:10;;;;;;;0.20;0.20;;;16.60;99.90;;;;;;5094087;28;20024;-92
2023/05/25 09:42:37;;;;;;;0.30;0.30;;;16.70;99.90;;;;;;5094845;28;20044;-92
2023/05/25 09:45:04;;;;;;;0.47;0.30;;;16.60;99.90;;;;;;5094085;28;20036;-92
2023/05/25 09:47:29;;;;;;;0.17;0.17;;;16.80;99.90;;;;;;5095124;28;20044;-91
2023/05/25 09:49:56;;;;;;;1.05;0.30;;;16.60;99.90;;;;;;5093656;28;20067;-92
2023/05/25 09:52:22;;;;;;;0.10;0.10;;;16.80;99.90;;;;;;5094628;28;20465;-92
2023/05/25 09:54:51;;;;;;;0.20;0.20;;;16.90;99.90;;;;;;5093489;28;20110;-91
2023/05/25 09:57:19;;;;;;;0.38;0.38;;;17.10;99.90;;;;;;5094708;28;20492;-91
2023/05/25 09:59:45;;;;;;;0.55;0.55;;;17.40;99.90;;;;;;5094575;28;20056;-91
2023/05/25 10:02:12;;;;;;;0.63;0.63;;;17.30;99.90;;;;;;5094565;28;20085;-91
2023/05/25 10:04:38;;;;;;;0.17;0.17;;;17.60;99.90;;;;;;5094630;28;20056;-92
2023/05/25 10:07:04;;;;;;;0.20;0.20;;;17.50;99.90;;;;;;5094508;28;20035;-91
2023/05/25 10:09:31;;;;;;;1.55;0.52;;;17.60;99.90;;;;;;5093633;28;20487;-90
2023/05/25 10:11:58;;;;;;;0.30;0.30;;;17.80;99.90;;;;;;5094389;28;20108;-92
2023/05/25 10:14:28;;;;;;;7.95;0.70;;;17.90;99.90;;;;;;5094082;28;20020;-92
2023/05/25 10:16:56;;;;;;;1.60;1.50;;;18.10;99.90;;;;;;5091845;28;20495;-91
2023/05/25 10:19:27;;;;;;;0.28;0.28;;;18.20;99.90;;;;;;5094067;28;20028;-91
2023/05/25 10:22:06;;;;;;;0.10;0.10;;;18.10;99.90;;;;;;5094217;28;20056;-92
2023/05/25 10:24:46;;;;;;;0.30;0.30;;;18.20;99.90;;;;;;5094002;28;20028;-92
2023/05/25 10:27:18;;;;;;;0.10;0.10;;;18.50;99.90;;;;;;5093582;28;20142;-92
2023/05/25 10:29:48;;;;;;;0.25;0.25;;;18.80;99.90;;;;;;5093533;28;20028;-92
2023/05/25 10:32:15;;;;;;;0.43;0.43;;;18.70;99.90;;;;;;5094427;28;20090;-94
2023/05/25 10:34:41;;;;;;;1.35;0.50;;;18.40;99.90;;;;;;5093102;28;20035;-95
2023/05/25 10:37:08;;;;;;;0.08;0.08;;;18.60;99.90;;;;;;5094353;28;20081;-92
2023/05/25 10:39:35;;;;;;;1.40;0.50;;;18.60;99.90;;;;;;5093469;28;20494;-95
2023/05/25 10:42:02;;;;;;;3.10;0.47;;;18.70;99.90;;;;;;5093088;28;20031;-93
2023/05/25 10:44:29;;;;;;;0.75;0.10;;;19.00;99.90;;;;;;5109688;28;20016;-95
2023/05/25 10:46:56;;;;;;;0.20;0.20;;;19.00;99.90;;;;;;5093928;28;20063;-94
2023/05/25 10:49:54;;;;;;;0.00;0.00;;;19.00;99.90;;;;;;5089654;28;20019;-96
2023/05/25 10:52:24;;;;;;;0.98;0.80;;;19.10;99.90;;;;;;5095066;28;20055;-93
2023/05/25 10:54:55;;;;;;;1.65;1.00;;;19.20;99.90;;;;;;5102429;28;20401;-89
2023/05/25 10:57:22;;;;;;;0.20;0.20;;;19.30;99.90;;;;;;5101755;28;20032;-89
2023/05/25 11:00:05;;;;;;;0.20;0.20;;;19.30;99.90;;;;;;5092773;28;20028;-93
2023/05/25 11:02:52;;;;;;;0.28;0.15;;;19.30;99.90;;;;;;5093852;28;20027;-93
2023/05/25 11:05:27;;;;;;;0.43;0.43;;;19.50;99.90;;;;;;5093543;28;20541;-94
2023/05/25 11:07:54;;;;;;;0.20;0.20;;;19.70;99.90;;;;;;5085060;28;20032;-95
2023/05/25 11:10:43;;;;;;;0.70;0.30;;;19.80;99.90;;;;;;5094086;28;20042;-95
2023/05/25 11:13:23;;;;;;;0.30;0.30;;;19.90;99.90;;;;;;5093117;28;20131;-92
2023/05/25 11:16:29;;;;;;;0.20;0.20;;;20.10;99.90;;;;;;5092273;28;20028;-95
2023/05/25 11:18:59;;;;;;;0.50;0.50;;;20.00;99.90;;;;;;5062123;28;20024;-95
2023/05/25 11:21:25;;;;;;;0.75;0.35;;;20.10;99.90;;;;;;5054474;28;20052;-96
2023/05/25 11:24:01;;;;;;;0.30;0.30;;;19.90;99.90;;;;;;5071678;28;20080;-95
2023/05/25 11:26:31;;;;;;;0.75;0.73;;;19.80;99.90;;;;;;5071211;28;20025;-94
2023/05/25 11:28:58;;;;;;;0.40;0.40;;;19.50;99.90;;;;;;5054881;28;20029;-95
2023/05/25 11:31:31;;;;;;;1.00;0.60;;;19.50;99.90;;;;;;5067759;28;20135;-95
2023/05/25 11:34:03;;;;;;;0.45;0.45;;;19.40;99.90;;;;;;5050805;28;20032;-95
2023/05/25 11:36:33;;;;;;;1.65;0.28;;;19.80;99.90;;;;;;5051447;28;20037;-94
2023/05/25 11:39:00;;;;;;;0.52;0.47;;;19.90;99.90;;;;;;5035153;28;20029;-95
2023/05/25 11:41:29;;;;;;;0.32;0.32;;;19.70;99.90;;;;;;5051676;28;20543;-94
2023/05/25 11:43:55;;;;;;;0.20;0.20;;;19.80;99.90;;;;;;5034596;28;20124;-95
2023/05/25 11:46:21;;;;;;;0.25;0.25;;;19.90;99.90;;;;;;5051116;28;20071;-94
2023/05/25 11:48:51;;;;;;;1.17;0.25;;;20.00;99.90;;;;;;5048600;28;20542;-94
2023/05/25 11:51:22;;;;;;;0.35;0.35;;;19.80;99.90;;;;;;5041588;28;20037;-96
2023/05/25 11:53:48;;;;;;;0.57;0.50;;;20.00;99.90;;;;;;5053861;28;20029;-96
2023/05/25 11:56:15;;;;;;;0.50;0.50;;;20.20;99.90;;;;;;5052410;28;20025;-93
2023/05/25 11:58:46;;;;;;;0.20;0.20;;;20.30;99.90;;;;;;5053565;28;20029;-93
2023/05/25 12:01:19;;;;;;;2.55;0.73;;;20.90;99.90;;;;;;5052190;28;20038;-94
2023/05/25 12:03:54;;;;;;;0.85;0.68;;;21.10;99.90;;;;;;5053068;28;20025;-93
2023/05/25 12:06:32;;;;;;;0.38;0.32;;;21.20;99.90;;;;;;5051318;28;20033;-93
2023/05/25 12:09:00;;;;;;;16.65;2.95;;;21.20;99.90;;;;;;5053764;28;20021;-96
2023/05/25 12:11:44;;;;;;;1.02;1.00;;;21.40;99.90;;;;;;5051854;28;20036;-96
2023/05/25 12:14:10;;;;;;;0.80;0.50;;;21.70;99.90;;;;;;5052914;28;20029;-96
2023/05/25 12:16:39;;;;;;;1.13;0.60;;;21.60;99.90;;;;;;5051383;28;20037;-96
2023/05/25 12:19:12;;;;;;;2.72;1.10;;;21.50;99.90;;;;;;5053321;28;20488;-96
2023/05/25 12:21:39;;;;;;;0.73;0.50;;;21.40;99.90;;;;;;5053830;28;20477;-96
2023/05/25 12:24:07;;;;;;;0.98;0.35;;;21.50;99.90;;;;;;5057813;28;20021;-96
2023/05/25 12:26:33;;;;;;;0.28;0.28;;;21.50;99.90;;;;;;5054203;28;20040;-96
2023/05/25 12:29:07;;;;;;;0.65;0.55;;;21.50;99.90;;;;;;5053519;28;20029;-96
2023/05/25 12:31:40;;;;;;;0.10;0.10;;;21.60;99.90;;;;;;5071679;28;20059;-96
2023/05/25 12:34:12;;;;;;;0.30;0.20;;;21.30;99.90;;;;;;5092954;28;20028;-90
2023/05/25 12:36:46;;;;;;;0.10;0.10;;;21.20;99.90;;;;;;5091775;28;20465;-91
2023/05/25 12:39:15;;;;;;;0.10;0.10;;;21.40;99.90;;;;;;5093325;28;20042;-91
2023/05/25 12:41:51;;;;;;;0.40;0.40;;;22.50;99.90;;;;;;5095011;28;20032;-90
2023/05/25 12:44:36;;;;;;;1.45;0.30;;;23.20;99.90;;;;;;5111353;28;20027;-92
2023/05/25 12:47:18;;;;;;;0.82;0.63;;;23.70;99.90;;;;;;5095388;28;20031;-91
2023/05/25 12:49:52;;;;;;;0.55;0.22;;;23.50;99.90;;;;;;5095465;28;20496;-91
2023/05/25 12:52:33;;;;;;;0.73;0.73;;;23.50;99.90;;;;;;5095790;28;20043;-90